createdAt,value
2018-08-11T00:00:30.528Z,97298.93
2018-08-11T00:02:59.867Z,97297.40
2018-08-11T00:05:29.261Z,97282.06
2018-08-11T00:07:58.604Z,97303.41
2018-08-11T00:10:28.067Z,97307.67
2018-08-11T00:12:57.415Z,97288.89
2018-08-11T00:15:26.792Z,97270.59
2018-08-11T00:17:56.127Z,97286.20
2018-08-11T00:20:27.439Z,97262.98
2018-08-11T00:22:56.776Z,97294.77
2018-08-11T00:25:26.145Z,97286.41
2018-08-11T00:27:55.500Z,97284.30
2018-08-11T00:30:24.876Z,97296.40
2018-08-11T00:32:54.251Z,97283.62
2018-08-11T00:35:23.579Z,97170.77
2018-08-11T00:37:52.934Z,97307.84
2018-08-11T00:40:22.297Z,97292.88
2018-08-11T00:42:51.631Z,97288.66
2018-08-11T00:45:21.020Z,97297.94
2018-08-11T00:47:50.380Z,97290.44
2018-08-11T00:50:26.448Z,97305.05
2018-08-11T00:52:55.768Z,97306.41
2018-08-11T00:55:25.120Z,97289.14
2018-08-11T00:57:54.469Z,97312.34
2018-08-11T01:00:23.790Z,97293.88
2018-08-11T01:02:53.172Z,97284.63
2018-08-11T01:05:22.560Z,97317.92
2018-08-11T01:07:52.220Z,97315.63
2018-08-11T01:10:21.572Z,97301.22
2018-08-11T01:12:50.936Z,97290.67
2018-08-11T01:15:21.860Z,97303.90
2018-08-11T01:17:51.879Z,97295.89
2018-08-11T01:20:21.225Z,97278.67
2018-08-11T01:22:51.299Z,97303.13
2018-08-11T01:25:20.643Z,97277.22
2018-08-11T01:27:50.003Z,97277.88
2018-08-11T01:30:20.932Z,97309.45
2018-08-11T01:32:50.310Z,97288.44
2018-08-11T01:35:19.652Z,97065.03
2018-08-11T01:37:49.012Z,97268.63
2018-08-11T01:40:18.647Z,97265.28
2018-08-11T01:42:48.867Z,97301.36
2018-08-11T01:45:18.580Z,97288.13
2018-08-11T01:47:47.951Z,97295.09
2018-08-11T01:50:17.427Z,97287.48
2018-08-11T01:52:47.711Z,97305.05
2018-08-11T01:55:19.055Z,97304.39
2018-08-11T01:57:48.432Z,97298.23
2018-08-11T02:00:18.246Z,97306.03
2018-08-11T02:02:47.592Z,97307.65
2018-08-11T02:05:16.943Z,97318.55
2018-08-11T02:07:46.333Z,97255.10
2018-08-11T02:10:19.967Z,97293.13
2018-08-11T02:12:49.581Z,97285.52
2018-08-11T02:15:18.920Z,97329.16
2018-08-11T02:17:48.263Z,97294.75
2018-08-11T02:20:18.908Z,97279.56
2018-08-11T02:22:49.339Z,97287.48
2018-08-11T02:25:18.664Z,97301.70
2018-08-11T02:27:48.031Z,97297.75
2018-08-11T02:30:18.467Z,97282.20
2018-08-11T02:32:47.823Z,97290.31
2018-08-11T02:35:17.185Z,97282.37
2018-08-11T02:37:46.552Z,97281.86
2018-08-11T02:40:17.316Z,97281.03
2018-08-11T02:42:46.676Z,97300.06
2018-08-11T02:45:18.164Z,97281.53
2018-08-11T02:47:47.868Z,97300.72
2018-08-11T02:50:17.253Z,97283.19
2018-08-11T02:52:46.611Z,97283.87
2018-08-11T02:55:15.978Z,97284.84
2018-08-11T02:57:45.343Z,97273.59
2018-08-11T03:00:14.709Z,97273.27
2018-08-11T03:02:44.064Z,97308.36
2018-08-11T03:05:13.418Z,97308.20
2018-08-11T03:07:42.759Z,97268.66
2018-08-11T03:10:12.491Z,97299.73
2018-08-11T03:12:42.496Z,97308.52
2018-08-11T03:15:13.187Z,97302.87
2018-08-11T03:17:42.622Z,97285.21
2018-08-11T03:20:13.279Z,97313.62
2018-08-11T03:22:42.867Z,97299.57
2018-08-11T03:25:12.306Z,97288.16
2018-08-11T03:27:41.702Z,97299.72
2018-08-11T03:30:11.068Z,97318.61
2018-08-11T03:32:40.419Z,97308.66
2018-08-11T03:35:09.784Z,97314.96
2018-08-11T03:37:39.128Z,97311.48
2018-08-11T03:40:10.842Z,97309.67
2018-08-11T03:45:17.066Z,97312.61
2018-08-11T03:47:46.417Z,97313.28
2018-08-11T03:50:15.783Z,97318.23
2018-08-11T03:52:45.252Z,97093.50
2018-08-11T03:55:14.623Z,97326.34
2018-08-11T03:57:43.969Z,97318.73
2018-08-11T04:00:13.386Z,97297.74
2018-08-11T04:02:42.746Z,97334.44
2018-08-11T04:05:12.095Z,97312.64
2018-08-11T04:07:41.455Z,97299.23
2018-08-11T04:10:10.800Z,97323.86
2018-08-11T04:12:40.142Z,97304.20
2018-08-11T04:15:09.508Z,97331.63
2018-08-11T04:17:40.683Z,97345.17
2018-08-11T04:20:12.139Z,97360.19
2018-08-11T04:22:41.513Z,97335.59
2018-08-11T04:25:10.964Z,97347.00
2018-08-11T04:27:40.312Z,97356.58
2018-08-11T04:30:11.071Z,97332.06
2018-08-11T04:32:40.668Z,97332.78
2018-08-11T04:35:10.062Z,97348.64
2018-08-11T04:37:39.434Z,97349.29
2018-08-11T04:40:09.405Z,97352.78
2018-08-11T04:42:38.802Z,97366.84
2018-08-11T04:45:08.708Z,97357.07
2018-08-11T04:47:38.076Z,97350.97
2018-08-11T04:50:07.572Z,97371.15
2018-08-11T04:52:36.950Z,97347.01
2018-08-11T04:55:06.364Z,97359.22
2018-08-11T04:57:35.819Z,97374.42
2018-08-11T05:00:06.320Z,97366.64
2018-08-11T05:02:35.679Z,97374.09
2018-08-11T05:05:05.594Z,97383.52
2018-08-11T05:07:34.961Z,97393.60
2018-08-11T05:10:04.925Z,97378.09
2018-08-11T05:12:34.287Z,97359.80
2018-08-11T05:15:03.657Z,97403.47
2018-08-11T05:17:33.028Z,97349.70
2018-08-11T05:20:02.392Z,97397.34
2018-08-11T05:22:31.751Z,97364.27
2018-08-11T05:25:01.098Z,97357.62
2018-08-11T05:27:30.520Z,97371.36
2018-08-11T05:29:59.912Z,97402.97
2018-08-11T05:32:29.258Z,97392.38
2018-08-11T05:34:58.631Z,97388.72
2018-08-11T05:37:27.995Z,97393.52
2018-08-11T05:39:57.338Z,97386.67
2018-08-11T05:42:26.686Z,97386.16
2018-08-11T05:44:56.039Z,97392.58
2018-08-11T05:47:25.487Z,97399.80
2018-08-11T05:49:55.211Z,97278.80
2018-08-11T05:52:24.575Z,97415.94
2018-08-11T05:54:53.940Z,97409.31
2018-08-11T05:57:23.291Z,97427.52
2018-08-11T05:59:52.670Z,97422.84
2018-08-11T06:02:22.023Z,97415.20
2018-08-11T06:04:51.383Z,97423.09
2018-08-11T06:07:20.739Z,97370.36
2018-08-11T06:09:50.096Z,97390.41
2018-08-11T06:12:19.456Z,97408.49
2018-08-11T06:14:48.808Z,97393.19
2018-08-11T06:17:18.176Z,97413.59
2018-08-11T06:19:47.522Z,97401.42
2018-08-11T06:22:16.904Z,97411.63
2018-08-11T06:24:46.262Z,97426.53
2018-08-11T06:27:15.635Z,97379.53
2018-08-11T06:29:44.991Z,97411.48
2018-08-11T06:32:14.409Z,97388.55
2018-08-11T06:34:43.759Z,97406.28
2018-08-11T06:37:13.114Z,97418.44
2018-08-11T06:39:42.479Z,97306.89
2018-08-11T06:42:11.856Z,97400.72
2018-08-11T06:44:41.224Z,97406.70
2018-08-11T06:47:10.687Z,97414.81
2018-08-11T06:49:39.935Z,97415.47
2018-08-11T06:52:09.611Z,97407.45
2018-08-11T06:54:38.979Z,97364.46
2018-08-11T06:57:08.375Z,97405.05
2018-08-11T06:59:37.720Z,97405.39
2018-08-11T07:02:07.300Z,97383.30
2018-08-11T07:04:36.676Z,97420.94
2018-08-11T07:07:06.086Z,97420.05
2018-08-11T07:09:35.424Z,97434.87
2018-08-11T07:12:04.831Z,97433.78
2018-08-11T07:14:34.207Z,97419.23
2018-08-11T07:17:03.561Z,97439.92
2018-08-11T07:19:32.931Z,97405.04
2018-08-11T07:22:02.293Z,97430.86
2018-08-11T07:24:31.648Z,97421.95
2018-08-11T07:27:01.046Z,97407.89
2018-08-11T07:29:30.451Z,97324.20
2018-08-11T07:31:59.785Z,97439.05
2018-08-11T07:34:29.159Z,97436.53
2018-08-11T07:36:58.530Z,97426.44
2018-08-11T07:39:27.879Z,97419.16
2018-08-11T07:41:57.271Z,97413.68
2018-08-11T07:44:26.636Z,97406.84
2018-08-11T07:46:55.985Z,97409.17
2018-08-11T07:49:25.372Z,97411.11
2018-08-11T07:51:54.792Z,97410.31
2018-08-11T07:54:24.117Z,97421.00
2018-08-11T07:56:53.579Z,97409.31
2018-08-11T07:59:22.924Z,97434.41
2018-08-11T08:01:52.292Z,97404.98
2018-08-11T08:04:21.657Z,97432.53
2018-08-11T08:06:51.007Z,97422.25
2018-08-11T08:09:20.362Z,97408.75
2018-08-11T08:11:49.715Z,97400.67
2018-08-11T08:14:19.066Z,97392.78
2018-08-11T08:16:48.419Z,97380.43
2018-08-11T08:19:17.786Z,97401.37
2018-08-11T08:21:47.162Z,97406.86
2018-08-11T08:24:16.552Z,97387.33
2018-08-11T08:26:45.904Z,97379.05
2018-08-11T08:29:15.306Z,97389.25
2018-08-11T08:31:44.687Z,97414.45
2018-08-11T08:34:14.094Z,97389.16
2018-08-11T08:36:43.528Z,97393.91
2018-08-11T08:39:13.445Z,97417.89
2018-08-11T08:41:42.919Z,97376.06
2018-08-11T08:44:12.246Z,97394.30
2018-08-11T08:46:41.684Z,97406.48
2018-08-11T08:49:11.050Z,97381.44
2018-08-11T08:51:40.410Z,97392.27
2018-08-11T08:54:09.819Z,97365.95
2018-08-11T08:56:39.173Z,97387.28
2018-08-11T08:59:08.577Z,97261.28
2018-08-11T09:01:37.951Z,97376.39
2018-08-11T09:04:07.313Z,97394.85
2018-08-11T09:06:36.647Z,97394.41
2018-08-11T09:09:09.938Z,97407.20
2018-08-11T09:11:39.554Z,97396.86
2018-08-11T09:14:08.936Z,97403.23
2018-08-11T09:16:38.319Z,97386.23
2018-08-11T09:19:07.674Z,97389.75
2018-08-11T09:21:37.023Z,97398.73
2018-08-11T09:24:06.409Z,97381.05
2018-08-11T09:26:35.772Z,97387.78
2018-08-11T09:29:05.314Z,97385.31
2018-08-11T09:31:34.726Z,97396.63
2018-08-11T09:34:04.111Z,97400.65
2018-08-11T09:36:33.490Z,97357.44
2018-08-11T09:39:02.846Z,97425.41
2018-08-11T09:41:32.269Z,97370.52
2018-08-11T09:44:01.620Z,97403.51
2018-08-11T09:46:31.007Z,97381.99
2018-08-11T09:49:00.375Z,97398.79
2018-08-11T09:51:29.739Z,97386.23
2018-08-11T09:53:59.094Z,97401.64
2018-08-11T09:56:28.463Z,97383.30
2018-08-11T09:58:57.811Z,97397.97
2018-08-11T10:01:32.468Z,97370.14
2018-08-11T10:04:01.827Z,97337.34
2018-08-11T10:06:31.191Z,97379.70
2018-08-11T10:09:00.554Z,97380.41
2018-08-11T10:11:29.930Z,97379.38
2018-08-11T10:13:59.274Z,97375.23
2018-08-11T10:16:28.649Z,97329.69
2018-08-11T10:18:58.016Z,97380.83
2018-08-11T10:21:27.378Z,97389.06
2018-08-11T10:23:56.732Z,97416.66
2018-08-11T10:26:26.322Z,97388.94
2018-08-11T10:28:55.714Z,97395.63
2018-08-11T10:31:25.156Z,97357.44
2018-08-11T10:33:54.503Z,97403.73
2018-08-11T10:36:23.854Z,97364.54
2018-08-11T10:38:53.202Z,97375.48
2018-08-11T10:41:22.734Z,97393.11
2018-08-11T10:43:52.116Z,97379.53
2018-08-11T10:46:21.471Z,97390.23
2018-08-11T10:48:50.833Z,97348.11
2018-08-11T10:51:20.216Z,97383.18
2018-08-11T10:53:49.580Z,97358.23
2018-08-11T10:56:18.923Z,97378.23
2018-08-11T10:58:48.285Z,97381.36
2018-08-11T11:01:17.681Z,97390.23
2018-08-11T11:03:47.047Z,97375.53
2018-08-11T11:06:16.510Z,97395.08
2018-08-11T11:08:45.902Z,97382.75
2018-08-11T11:11:15.286Z,97382.70
2018-08-11T11:13:44.644Z,97393.47
2018-08-11T11:16:14.017Z,97372.70
2018-08-11T11:18:43.412Z,97382.34
2018-08-11T11:21:12.770Z,97348.92
2018-08-11T11:23:42.172Z,97354.72
2018-08-11T11:26:11.568Z,97349.94
2018-08-11T11:28:40.934Z,97359.92
2018-08-11T11:31:10.327Z,97275.94
2018-08-11T11:33:39.699Z,97330.22
2018-08-11T11:36:09.102Z,97333.81
2018-08-11T11:38:38.479Z,97341.62
2018-08-11T11:41:07.855Z,97334.23
2018-08-11T11:43:37.236Z,97343.05
2018-08-11T11:46:06.665Z,97313.77
2018-08-11T11:48:36.030Z,97299.80
2018-08-11T11:51:05.383Z,97333.45
2018-08-11T11:53:34.769Z,97341.77
2018-08-11T11:56:04.142Z,97327.02
2018-08-11T11:58:33.527Z,97321.81
2018-08-11T12:01:02.900Z,97332.21
2018-08-11T12:03:32.671Z,97328.58
2018-08-11T12:06:02.039Z,97336.90
2018-08-11T12:08:31.408Z,97332.81
2018-08-11T12:11:00.767Z,97332.42
2018-08-11T12:13:30.126Z,97646.58
2018-08-11T12:15:59.478Z,97339.00
2018-08-11T12:18:28.883Z,97323.73
2018-08-11T12:20:58.239Z,97352.42
2018-08-11T12:23:27.606Z,97311.55
2018-08-11T12:25:56.954Z,97301.94
2018-08-11T12:28:26.299Z,97294.86
2018-08-11T12:30:55.656Z,97289.45
2018-08-11T12:33:25.015Z,97317.33
2018-08-11T12:35:54.362Z,97267.80
2018-08-11T12:38:23.727Z,97248.38
2018-08-11T12:40:53.099Z,97284.73
2018-08-11T12:43:22.490Z,97290.93
2018-08-11T12:45:51.945Z,97286.04
2018-08-11T12:48:21.251Z,97258.19
2018-08-11T12:50:50.599Z,97282.73
2018-08-11T12:53:19.992Z,97277.64
2018-08-11T12:55:49.291Z,97291.59
2018-08-11T12:58:18.733Z,97304.09
2018-08-11T13:00:48.093Z,97284.36
2018-08-11T13:03:17.458Z,97160.96
2018-08-11T13:05:46.802Z,97319.01
2018-08-11T13:08:16.194Z,97271.75
2018-08-11T13:10:45.548Z,97486.02
2018-08-11T13:13:14.912Z,97261.67
2018-08-11T13:15:44.280Z,97268.00
2018-08-11T13:18:13.623Z,97258.09
2018-08-11T13:20:43.021Z,97260.62
2018-08-11T13:23:12.337Z,97253.52
2018-08-11T13:25:41.708Z,97268.14
2018-08-11T13:28:11.066Z,97277.86
2018-08-11T13:30:40.473Z,97249.99
2018-08-11T13:33:10.209Z,97219.23
2018-08-11T13:35:39.556Z,97244.06
2018-08-11T13:38:09.211Z,97229.64
2018-08-11T13:40:38.567Z,97225.49
2018-08-11T13:43:07.944Z,97254.98
2018-08-11T13:45:37.455Z,97239.69
2018-08-11T13:48:07.281Z,97239.27
2018-08-11T13:50:36.655Z,97225.52
2018-08-11T13:53:06.226Z,97251.07
2018-08-11T13:55:35.583Z,97242.33
2018-08-11T13:58:04.930Z,97230.04
2018-08-11T14:00:34.314Z,97227.71
2018-08-11T14:03:03.662Z,97227.99
2018-08-11T14:05:33.018Z,97232.35
2018-08-11T14:08:02.386Z,97244.06
2018-08-11T14:10:31.743Z,97223.77
2018-08-11T14:13:01.067Z,97238.52
2018-08-11T14:15:30.439Z,97220.00
2018-08-11T14:17:59.768Z,97213.34
2018-08-11T14:20:29.194Z,97219.67
2018-08-11T14:22:58.483Z,97221.48
2018-08-11T14:25:27.874Z,97278.71
2018-08-11T14:27:57.245Z,97269.62
2018-08-11T14:30:26.603Z,97273.83
2018-08-11T14:32:55.968Z,97234.59
2018-08-11T14:35:25.330Z,97225.08
2018-08-11T14:37:54.691Z,97256.69
2018-08-11T14:40:24.070Z,97204.78
2018-08-11T14:42:53.494Z,97207.34
2018-08-11T14:45:23.126Z,97262.44
2018-08-11T14:47:52.508Z,97225.95
2018-08-11T14:50:21.864Z,97224.22
2018-08-11T14:52:51.222Z,97184.30
2018-08-11T14:55:20.615Z,97198.20
2018-08-11T14:57:49.995Z,97239.81
2018-08-11T15:00:19.363Z,97238.58
2018-08-11T15:02:48.711Z,97212.03
2018-08-11T15:05:18.086Z,97176.25
2018-08-11T15:07:47.430Z,97254.56
2018-08-11T15:10:16.807Z,97241.36
2018-08-11T15:12:46.162Z,97182.57
2018-08-11T15:15:15.555Z,97232.75
2018-08-11T15:17:44.940Z,97245.63
2018-08-11T15:20:14.314Z,97193.58
2018-08-11T15:22:43.756Z,97212.32
2018-08-11T15:25:13.174Z,97209.95
2018-08-11T15:27:42.530Z,97190.86
2018-08-11T15:30:12.884Z,97205.16
2018-08-11T15:32:42.263Z,97185.75
2018-08-11T15:35:11.661Z,97214.86
2018-08-11T15:37:41.034Z,97210.83
2018-08-11T15:40:10.401Z,97161.41
2018-08-11T15:42:39.763Z,97184.81
2018-08-11T15:45:09.202Z,97194.13
2018-08-11T15:47:38.604Z,97204.91
2018-08-11T15:50:08.654Z,97220.17
2018-08-11T15:52:38.082Z,97246.47
2018-08-11T15:55:07.491Z,97174.48
2018-08-11T15:57:36.888Z,97241.87
2018-08-11T16:00:07.250Z,97183.55
2018-08-11T16:02:36.956Z,97197.70
2018-08-11T16:05:06.448Z,97178.19
2018-08-11T16:07:36.071Z,97179.94
2018-08-11T16:10:06.383Z,97170.11
2018-08-11T16:12:35.730Z,97187.44
2018-08-11T16:15:05.423Z,97186.47
2018-08-11T16:17:34.782Z,97187.29
2018-08-11T16:20:04.167Z,97197.05
2018-08-11T16:22:33.539Z,97195.19
2018-08-11T16:25:02.899Z,97183.12
2018-08-11T16:27:32.278Z,97196.58
2018-08-11T16:30:01.648Z,97165.75
2018-08-11T16:32:30.996Z,97179.78
2018-08-11T16:35:00.375Z,97178.61
2018-08-11T16:37:29.748Z,97154.53
2018-08-11T16:39:59.178Z,97167.33
2018-08-11T16:42:28.554Z,97168.95
2018-08-11T16:44:57.899Z,97161.31
2018-08-11T16:47:27.267Z,97157.72
2018-08-11T16:49:56.627Z,97172.55
2018-08-11T16:52:25.999Z,97150.33
2018-08-11T16:54:55.371Z,97134.81
2018-08-11T16:57:24.835Z,97113.77
2018-08-11T16:59:54.205Z,97158.94
2018-08-11T17:02:23.578Z,97132.88
2018-08-11T17:04:52.939Z,97153.23
2018-08-11T17:07:22.310Z,97126.56
2018-08-11T17:09:51.690Z,97129.48
2018-08-11T17:12:21.061Z,97183.53
2018-08-11T17:14:50.521Z,97156.63
2018-08-11T17:17:19.821Z,97181.98
2018-08-11T17:19:49.186Z,97195.63
2018-08-11T17:22:18.549Z,97176.62
2018-08-11T17:24:47.950Z,97165.09
2018-08-11T17:27:17.319Z,97163.36
2018-08-11T17:29:46.711Z,97185.69
2018-08-11T17:32:16.578Z,97152.08
2018-08-11T17:34:45.945Z,97140.45
2018-08-11T17:37:15.311Z,97189.00
2018-08-11T17:39:44.678Z,97186.10
2018-08-11T17:42:14.114Z,97180.47
2018-08-11T17:44:43.466Z,97173.49
2018-08-11T17:47:12.839Z,97181.00
2018-08-11T17:49:42.251Z,97196.35
2018-08-11T17:52:11.616Z,97174.58
2018-08-11T17:54:40.978Z,97168.44
2018-08-11T17:57:10.332Z,97173.16
2018-08-11T17:59:39.686Z,97187.03
2018-08-11T18:02:09.044Z,97172.76
2018-08-11T18:04:44.890Z,97156.08
2018-08-11T18:07:14.267Z,97154.85
2018-08-11T18:09:43.636Z,97192.52
2018-08-11T18:12:12.990Z,97195.81
2018-08-11T18:14:42.346Z,97203.44
2018-08-11T18:17:11.725Z,97213.73
2018-08-11T18:19:41.120Z,97190.13
2018-08-11T18:22:10.443Z,97201.27
2018-08-11T18:24:39.832Z,97219.69
2018-08-11T18:27:09.190Z,97198.44
2018-08-11T18:29:38.567Z,97213.13
2018-08-11T18:32:08.910Z,97208.03
2018-08-11T18:34:38.323Z,97232.19
2018-08-11T18:37:08.209Z,97198.63
2018-08-11T18:39:37.556Z,97212.88
2018-08-11T18:42:07.058Z,97223.39
2018-08-11T18:44:36.419Z,97209.08
2018-08-11T18:47:06.029Z,97215.76
2018-08-11T18:49:35.442Z,97212.31
2018-08-11T18:52:04.803Z,97231.88
2018-08-11T18:54:34.166Z,97228.78
2018-08-11T18:57:03.531Z,97230.91
2018-08-11T18:59:32.882Z,97253.95
2018-08-11T19:02:02.244Z,97235.41
2018-08-11T19:04:31.615Z,97225.05
2018-08-11T19:07:00.999Z,97218.99
2018-08-11T19:09:30.378Z,97233.55
2018-08-11T19:11:59.760Z,97220.87
2018-08-11T19:14:29.108Z,97240.93
2018-08-11T19:16:58.486Z,97249.07
2018-08-11T19:19:27.855Z,97243.84
2018-08-11T19:21:57.219Z,97252.05
2018-08-11T19:24:26.586Z,97258.29
2018-08-11T19:26:55.960Z,97254.06
2018-08-11T19:29:25.335Z,97252.75
2018-08-11T19:31:54.703Z,97270.23
2018-08-11T19:34:24.064Z,97257.58
2018-08-11T19:36:53.435Z,97267.88
2018-08-11T19:39:22.822Z,97249.14
2018-08-11T19:41:52.169Z,97249.97
2018-08-11T19:44:21.518Z,97247.86
2018-08-11T19:46:50.890Z,97236.66
2018-08-11T19:49:20.253Z,97261.46
2018-08-11T19:51:49.630Z,97247.08
2018-08-11T19:54:19.007Z,97247.06
2018-08-11T19:56:48.392Z,97252.59
2018-08-11T19:59:17.775Z,97200.03
2018-08-11T20:01:47.198Z,97265.66
2018-08-11T20:04:16.517Z,97260.13
2018-08-11T20:06:46.562Z,97275.98
2018-08-11T20:09:15.939Z,97255.20
2018-08-11T20:11:45.329Z,97267.65
2018-08-11T20:14:14.716Z,97280.23
2018-08-11T20:16:44.111Z,97280.37
2018-08-11T20:19:13.609Z,97272.03
2018-08-11T20:21:42.831Z,97265.72
2018-08-11T20:24:12.195Z,97272.45
2018-08-11T20:26:41.581Z,97287.30
2018-08-11T20:29:10.944Z,97284.70
2018-08-11T20:31:40.338Z,97268.14
2018-08-11T20:34:09.976Z,97240.66
2018-08-11T20:36:39.349Z,97278.25
2018-08-11T20:39:12.535Z,97258.84
2018-08-11T20:41:41.921Z,97239.06
2018-08-11T20:44:11.292Z,97268.38
2018-08-11T20:46:40.675Z,97285.14
2018-08-11T20:49:10.023Z,97273.79
2018-08-11T20:51:39.387Z,97279.50
2018-08-11T20:54:09.055Z,97289.25
2018-08-11T20:56:38.422Z,97291.91
2018-08-11T20:59:07.783Z,97292.56
2018-08-11T21:01:37.227Z,97282.67
2018-08-11T21:04:06.942Z,97295.81
2018-08-11T21:06:36.323Z,97282.31
2018-08-11T21:09:10.315Z,97293.48
2018-08-11T21:11:39.726Z,97298.42
2018-08-11T21:14:10.444Z,97312.59
2018-08-11T21:16:39.848Z,97284.95
2018-08-11T21:19:09.226Z,97304.41
2018-08-11T21:21:38.600Z,97257.62
2018-08-11T21:24:07.981Z,97260.56
2018-08-11T21:26:37.356Z,97292.38
2018-08-11T21:29:06.744Z,97285.46
2018-08-11T21:31:36.098Z,97301.91
2018-08-11T21:34:05.459Z,97273.34
2018-08-11T21:36:34.849Z,97277.02
2018-08-11T21:39:06.466Z,97237.59
2018-08-11T21:41:35.815Z,97288.58
2018-08-11T21:44:05.195Z,97309.03
2018-08-11T21:46:34.624Z,97293.38
2018-08-11T21:49:03.996Z,97184.98
2018-08-11T21:51:33.371Z,97284.18
2018-08-11T21:54:02.756Z,97284.33
2018-08-11T21:56:32.118Z,97312.61
2018-08-11T21:59:01.478Z,97260.00
2018-08-11T22:01:30.832Z,97286.33
2018-08-11T22:04:00.210Z,97278.55
2018-08-11T22:06:29.566Z,97268.30
2018-08-11T22:08:58.931Z,97300.06
2018-08-11T22:11:28.304Z,97283.02
2018-08-11T22:13:57.679Z,97409.23
2018-08-11T22:16:27.043Z,97298.09
2018-08-11T22:18:56.448Z,97292.12
2018-08-11T22:21:25.811Z,97268.31
2018-08-11T22:23:55.206Z,97264.66
2018-08-11T22:26:24.579Z,97276.55
2018-08-11T22:28:53.938Z,97283.52
2018-08-11T22:31:23.331Z,97233.75
2018-08-11T22:33:52.715Z,97262.03
2018-08-11T22:36:22.079Z,97283.17
2018-08-11T22:38:51.471Z,97244.52
2018-08-11T22:41:20.831Z,97262.02
2018-08-11T22:43:50.223Z,97148.33
2018-08-11T22:46:19.630Z,97254.09
2018-08-11T22:48:49.069Z,97260.86
2018-08-11T22:51:18.420Z,97258.73
2018-08-11T22:53:47.776Z,97254.77
2018-08-11T22:56:17.159Z,97252.92
2018-08-11T22:58:46.523Z,97273.25
2018-08-11T23:01:15.894Z,97250.44
2018-08-11T23:03:45.255Z,97280.17
2018-08-11T23:06:14.616Z,97249.92
2018-08-11T23:08:44.003Z,97245.66
2018-08-11T23:11:13.397Z,97238.20
2018-08-11T23:13:42.774Z,97247.45
2018-08-11T23:16:12.150Z,97238.39
2018-08-11T23:18:41.602Z,97245.65
2018-08-11T23:21:10.958Z,97252.72
2018-08-11T23:23:40.360Z,97264.13
2018-08-11T23:26:09.752Z,97222.62
2018-08-11T23:28:39.135Z,97236.13
2018-08-11T23:31:08.514Z,97247.52
2018-08-11T23:33:37.894Z,97233.29
2018-08-11T23:36:07.266Z,97267.39
2018-08-11T23:38:36.634Z,97215.82
2018-08-11T23:41:06.015Z,97243.63
2018-08-11T23:43:35.387Z,97217.53
2018-08-11T23:46:04.836Z,97232.38
2018-08-11T23:48:34.215Z,97195.24
2018-08-11T23:51:03.615Z,97251.35
2018-08-11T23:53:32.943Z,97213.97
2018-08-11T23:56:02.331Z,97229.70
2018-08-11T23:58:31.779Z,97233.52
